createdAt,value
2018-04-29T00:00:50.814Z,9.23
2018-04-29T00:01:50.816Z,9.25
2018-04-29T00:02:50.816Z,9.19
2018-04-29T00:03:50.791Z,9.21
2018-04-29T00:04:50.806Z,9.23
2018-04-29T00:05:50.757Z,9.19
2018-04-29T00:06:50.747Z,9.19
2018-04-29T00:07:50.738Z,9.19
2018-04-29T00:08:50.728Z,9.21
2018-04-29T00:09:50.713Z,9.22
2018-04-29T00:10:50.703Z,9.18
2018-04-29T00:11:50.722Z,9.06
2018-04-29T00:12:50.705Z,9.11
2018-04-29T00:13:50.685Z,9.08
2018-04-29T00:14:50.658Z,9.06
2018-04-29T00:15:50.647Z,9.14
2018-04-29T00:16:50.658Z,9.11
2018-04-29T00:17:50.643Z,9.03
2018-04-29T00:18:50.622Z,9.03
2018-04-29T00:19:50.603Z,8.91
2018-04-29T00:20:50.591Z,9.02
2018-04-29T00:21:50.580Z,9.02
2018-04-29T00:22:50.569Z,9.03
2018-04-29T00:23:50.558Z,8.92
2018-04-29T00:24:50.548Z,8.91
2018-04-29T00:25:50.535Z,8.82
2018-04-29T00:26:50.557Z,8.92
2018-04-29T00:27:50.542Z,8.79
2018-04-29T00:28:50.509Z,8.82
2018-04-29T00:29:50.490Z,8.74
2018-04-29T00:30:50.480Z,8.73
2018-04-29T00:31:50.499Z,8.60
2018-04-29T00:32:50.529Z,8.63
2018-04-29T00:33:50.454Z,8.58
2018-04-29T00:34:50.436Z,8.48
2018-04-29T00:35:50.426Z,8.60
2018-04-29T00:36:50.419Z,8.60
2018-04-29T00:37:50.402Z,8.58
2018-04-29T00:38:50.391Z,8.63
2018-04-29T00:39:50.381Z,8.46
2018-04-29T00:40:50.392Z,8.53
2018-04-29T00:41:50.384Z,8.56
2018-04-29T00:42:50.364Z,8.41
2018-04-29T00:43:50.339Z,8.26
2018-04-29T00:44:50.354Z,8.30
2018-04-29T00:45:50.316Z,8.34
2018-04-29T00:46:50.302Z,8.33
2018-04-29T00:47:50.305Z,8.26
2018-04-29T00:48:50.280Z,8.23
2018-04-29T00:49:50.268Z,8.23
2018-04-29T00:50:50.267Z,8.23
2018-04-29T00:51:50.246Z,8.30
2018-04-29T00:52:50.237Z,8.31
2018-04-29T00:53:50.225Z,8.31
2018-04-29T00:54:50.211Z,8.34
2018-04-29T00:55:50.233Z,8.45
2018-04-29T00:56:50.223Z,8.41
2018-04-29T00:57:50.193Z,8.46
2018-04-29T00:58:50.167Z,8.44
2018-04-29T00:59:50.155Z,8.45
2018-04-29T01:00:50.163Z,8.41
2018-04-29T01:01:50.158Z,8.38
2018-04-29T01:02:50.140Z,8.44
2018-04-29T01:03:50.111Z,8.37
2018-04-29T01:04:50.100Z,8.38
2018-04-29T01:05:50.091Z,8.44
2018-04-29T01:06:50.075Z,8.41
2018-04-29T01:07:50.065Z,8.38
2018-04-29T01:08:50.052Z,8.37
2018-04-29T01:09:50.041Z,8.36
2018-04-29T01:10:50.029Z,8.31
2018-04-29T01:11:50.048Z,8.27
2018-04-29T01:12:50.029Z,8.31
2018-04-29T01:13:50.035Z,8.30
2018-04-29T01:14:49.983Z,8.19
2018-04-29T01:15:49.986Z,8.15
2018-04-29T01:17:49.962Z,8.08
2018-04-29T01:18:49.938Z,8.01
2018-04-29T01:19:49.951Z,8.09
2018-04-29T01:20:49.915Z,7.93
2018-04-29T01:21:49.904Z,7.95
2018-04-29T01:22:49.891Z,7.88
2018-04-29T01:23:52.333Z,7.82
2018-04-29T01:24:49.869Z,7.79
2018-04-29T01:25:49.882Z,7.70
2018-04-29T01:26:49.875Z,7.77
2018-04-29T01:27:49.892Z,7.72
2018-04-29T01:28:49.828Z,7.77
2018-04-29T01:29:49.813Z,7.88
2018-04-29T01:30:49.817Z,7.83
2018-04-29T01:31:49.816Z,7.83
2018-04-29T01:32:49.790Z,7.90
2018-04-29T01:33:49.805Z,7.94
2018-04-29T01:34:49.757Z,7.80
2018-04-29T01:35:49.743Z,7.85
2018-04-29T01:36:49.732Z,7.72
2018-04-29T01:37:49.719Z,7.85
2018-04-29T01:38:49.707Z,7.80
2018-04-29T01:39:49.696Z,7.79
2018-04-29T01:40:49.702Z,7.72
2018-04-29T01:41:49.705Z,7.66
2018-04-29T01:42:49.686Z,7.70
2018-04-29T01:43:49.656Z,7.72
2018-04-29T01:44:49.637Z,7.61
2018-04-29T01:45:49.628Z,7.67
2018-04-29T01:46:49.643Z,7.70
2018-04-29T01:47:49.619Z,7.69
2018-04-29T01:48:49.599Z,7.70
2018-04-29T01:49:49.577Z,7.61
2018-04-29T01:50:49.565Z,7.61
2018-04-29T01:51:49.553Z,7.67
2018-04-29T01:52:49.542Z,7.63
2018-04-29T01:53:49.530Z,7.70
2018-04-29T01:54:49.518Z,7.63
2018-04-29T01:55:49.513Z,7.69
2018-04-29T01:56:49.495Z,7.67
2018-04-29T01:57:49.510Z,7.67
2018-04-29T01:58:49.484Z,7.66
2018-04-29T01:59:49.501Z,7.67
2018-04-29T02:00:49.448Z,7.61
2018-04-29T02:01:49.443Z,7.57
2018-04-29T02:02:49.443Z,7.50
2018-04-29T02:03:49.425Z,7.56
2018-04-29T02:04:49.401Z,7.54
2018-04-29T02:05:49.414Z,7.51
2018-04-29T02:06:49.376Z,7.48
2018-04-29T02:07:49.365Z,7.48
2018-04-29T02:08:49.362Z,7.48
2018-04-29T02:09:49.340Z,7.39
2018-04-29T02:10:49.329Z,7.43
2018-04-29T02:11:49.317Z,7.45
2018-04-29T02:12:49.336Z,7.38
2018-04-29T02:13:49.312Z,7.43
2018-04-29T02:14:49.297Z,7.42
2018-04-29T02:15:49.269Z,7.39
2018-04-29T02:16:49.258Z,7.39
2018-04-29T02:17:49.282Z,7.33
2018-04-29T02:18:49.251Z,7.32
2018-04-29T02:19:49.226Z,7.36
2018-04-29T02:20:49.210Z,7.33
2018-04-29T02:21:49.198Z,7.25
2018-04-29T02:22:49.193Z,7.25
2018-04-29T02:23:49.175Z,7.31
2018-04-29T02:24:49.163Z,7.31
2018-04-29T02:25:49.151Z,7.28
2018-04-29T02:26:49.139Z,7.25
2018-04-29T02:27:49.159Z,7.24
2018-04-29T02:28:49.149Z,7.32
2018-04-29T02:29:49.116Z,7.36
2018-04-29T02:30:49.096Z,7.42
2018-04-29T02:31:49.081Z,7.38
2018-04-29T02:32:49.077Z,7.36
2018-04-29T02:33:49.080Z,7.35
2018-04-29T02:34:49.067Z,7.33
2018-04-29T02:35:49.033Z,7.33
2018-04-29T02:36:49.022Z,7.31
2018-04-29T02:37:49.010Z,7.42
2018-04-29T02:38:49.002Z,7.39
2018-04-29T02:39:48.987Z,7.38
2018-04-29T02:40:48.978Z,7.35
2018-04-29T02:41:48.961Z,7.38
2018-04-29T02:42:48.951Z,7.31
2018-04-29T02:43:48.973Z,7.39
2018-04-29T02:44:48.949Z,7.33
2018-04-29T02:45:48.964Z,7.29
2018-04-29T02:46:48.903Z,7.36
2018-04-29T02:47:48.891Z,7.39
2018-04-29T02:48:48.886Z,7.29
2018-04-29T02:49:48.891Z,7.33
2018-04-29T02:50:48.863Z,7.35
2018-04-29T02:51:48.878Z,7.25
2018-04-29T02:52:48.831Z,7.33
2018-04-29T02:53:48.824Z,7.24
2018-04-29T02:54:48.807Z,7.29
2018-04-29T02:55:48.796Z,7.29
2018-04-29T02:56:48.787Z,7.28
2018-04-29T02:57:48.772Z,7.18
2018-04-29T02:58:48.794Z,7.20
2018-04-29T02:59:48.782Z,7.14
2018-04-29T03:00:48.756Z,7.21
2018-04-29T03:01:48.727Z,7.11
2018-04-29T03:02:48.713Z,7.11
2018-04-29T03:03:48.702Z,7.07
2018-04-29T03:04:48.715Z,7.02
2018-04-29T03:05:48.689Z,7.00
2018-04-29T03:06:48.671Z,6.97
2018-04-29T03:07:48.654Z,6.96
2018-04-29T03:08:48.642Z,6.85
2018-04-29T03:09:48.629Z,6.99
2018-04-29T03:10:48.618Z,6.95
2018-04-29T03:11:48.606Z,6.93
2018-04-29T03:12:48.594Z,6.84
2018-04-29T03:13:48.581Z,6.92
2018-04-29T03:14:48.579Z,6.88
2018-04-29T03:15:48.585Z,6.85
2018-04-29T03:16:48.556Z,6.81
2018-04-29T03:17:48.571Z,6.81
2018-04-29T03:18:48.521Z,6.78
2018-04-29T03:19:48.541Z,6.82
2018-04-29T03:20:48.537Z,6.79
2018-04-29T03:21:48.498Z,6.84
2018-04-29T03:22:48.475Z,6.77
2018-04-29T03:23:48.462Z,6.81
2018-04-29T03:24:48.451Z,6.81
2018-04-29T03:25:48.437Z,6.88
2018-04-29T03:26:48.426Z,6.89
2018-04-29T03:27:48.414Z,6.88
2018-04-29T03:28:48.402Z,6.93
2018-04-29T03:29:48.393Z,6.77
2018-04-29T03:30:48.417Z,6.77
2018-04-29T03:31:48.420Z,6.79
2018-04-29T03:32:48.370Z,6.85
2018-04-29T03:33:48.342Z,6.84
2018-04-29T03:34:48.353Z,6.88
2018-04-29T03:35:48.319Z,6.96
2018-04-29T03:36:48.317Z,7.02
2018-04-29T03:37:48.347Z,6.95
2018-04-29T03:38:48.305Z,7.03
2018-04-29T03:39:48.275Z,7.05
2018-04-29T03:40:48.276Z,7.05
2018-04-29T03:41:48.244Z,7.00
2018-04-29T03:42:48.232Z,6.97
2018-04-29T03:43:48.221Z,7.00
2018-04-29T03:44:48.208Z,6.97
2018-04-29T03:45:48.202Z,7.00
2018-04-29T03:46:48.233Z,7.02
2018-04-29T03:47:48.228Z,6.87
2018-04-29T03:48:48.205Z,7.00
2018-04-29T03:49:48.179Z,7.00
2018-04-29T03:50:48.150Z,7.02
2018-04-29T03:51:48.128Z,6.97
2018-04-29T03:52:48.321Z,7.05
2018-04-29T03:53:48.140Z,7.06
2018-04-29T03:54:48.114Z,7.14
2018-04-29T03:55:48.096Z,7.14
2018-04-29T03:56:48.069Z,7.13
2018-04-29T03:57:48.049Z,7.17
2018-04-29T03:58:48.040Z,7.20
2018-04-29T03:59:48.025Z,7.13
2018-04-29T04:00:48.014Z,7.07
2018-04-29T04:01:51.278Z,7.11
2018-04-29T04:02:48.079Z,7.14
2018-04-29T04:03:48.046Z,7.21
2018-04-29T04:04:47.996Z,7.13
2018-04-29T04:05:47.966Z,7.13
2018-04-29T04:06:47.979Z,7.20
2018-04-29T04:07:47.975Z,7.21
2018-04-29T04:08:47.949Z,7.24
2018-04-29T04:09:48.309Z,7.24
2018-04-29T04:10:48.574Z,7.21
2018-04-29T04:11:47.971Z,7.33
2018-04-29T04:12:47.953Z,7.32
2018-04-29T04:13:47.978Z,7.21
2018-04-29T04:15:47.941Z,7.24
2018-04-29T04:16:47.931Z,7.24
2018-04-29T04:17:47.826Z,7.29
2018-04-29T04:18:47.977Z,7.28
2018-04-29T04:19:47.837Z,7.39
2018-04-29T04:20:48.005Z,7.42
2018-04-29T04:21:47.846Z,7.40
2018-04-29T04:22:47.783Z,7.33
2018-04-29T04:23:47.860Z,7.35
2018-04-29T04:24:47.831Z,7.36
2018-04-29T04:25:47.829Z,7.35
2018-04-29T04:27:47.717Z,7.33
2018-04-29T04:28:47.774Z,7.33
2018-04-29T04:29:47.689Z,7.45
2018-04-29T04:30:47.961Z,7.38
2018-04-29T04:31:47.914Z,7.47
2018-04-29T04:32:47.717Z,7.50
2018-04-29T04:33:48.705Z,7.57
2018-04-29T04:34:47.703Z,7.54
2018-04-29T04:35:47.649Z,7.50
2018-04-29T04:36:47.681Z,7.54
2018-04-29T04:37:47.659Z,7.50
2018-04-29T04:38:47.863Z,7.66
2018-04-29T04:39:48.501Z,7.63
2018-04-29T04:40:47.604Z,7.60
2018-04-29T04:41:47.595Z,7.72
2018-04-29T04:42:47.793Z,7.75
2018-04-29T04:43:47.577Z,7.79
2018-04-29T04:44:47.533Z,7.77
2018-04-29T04:45:47.547Z,7.87
2018-04-29T04:46:47.756Z,7.95
2018-04-29T04:47:47.558Z,7.95
2018-04-29T04:48:47.497Z,8.05
2018-04-29T04:49:47.555Z,8.03
2018-04-29T04:50:47.512Z,8.05
2018-04-29T04:51:47.464Z,8.13
2018-04-29T04:52:47.446Z,8.15
2018-04-29T04:53:47.396Z,8.24
2018-04-29T04:54:47.446Z,8.15
2018-04-29T04:55:47.371Z,8.19
2018-04-29T04:56:47.462Z,8.23
2018-04-29T04:57:47.409Z,8.37
2018-04-29T04:58:47.372Z,8.36
2018-04-29T04:59:47.403Z,8.30
2018-04-29T05:00:47.360Z,8.33
2018-04-29T05:01:47.313Z,8.31
2018-04-29T05:02:47.391Z,8.41
2018-04-29T05:03:47.307Z,8.34
2018-04-29T05:04:47.296Z,8.36
2018-04-29T05:05:47.370Z,8.56
2018-04-29T05:06:47.346Z,8.51
2018-04-29T05:07:47.297Z,8.56
2018-04-29T05:08:47.239Z,8.51
2018-04-29T05:09:47.244Z,8.58
2018-04-29T05:10:47.217Z,8.64
2018-04-29T05:11:47.228Z,8.74
2018-04-29T05:12:47.211Z,8.71
2018-04-29T05:13:47.257Z,8.78
2018-04-29T05:14:47.219Z,8.88
2018-04-29T05:15:47.176Z,8.88
2018-04-29T05:16:47.222Z,8.94
2018-04-29T05:17:47.200Z,8.89
2018-04-29T05:18:47.171Z,8.91
2018-04-29T05:19:47.225Z,8.94
2018-04-29T05:20:47.167Z,8.82
2018-04-29T05:21:47.195Z,8.91
2018-04-29T05:22:47.124Z,8.95
2018-04-29T05:23:47.151Z,8.99
2018-04-29T05:24:47.114Z,9.00
2018-04-29T05:25:47.085Z,9.00
2018-04-29T05:26:47.859Z,9.11
2018-04-29T05:27:47.112Z,9.08
2018-04-29T05:28:47.054Z,9.19
2018-04-29T05:29:47.048Z,9.22
2018-04-29T05:30:46.997Z,9.18
2018-04-29T05:31:47.007Z,9.18
2018-04-29T05:32:47.055Z,9.21
2018-04-29T05:33:47.216Z,9.19
2018-04-29T05:34:46.997Z,9.21
2018-04-29T05:35:46.990Z,9.18
2018-04-29T05:36:47.000Z,9.21
2018-04-29T05:37:47.221Z,9.21
2018-04-29T05:38:47.220Z,9.23
2018-04-29T05:39:46.961Z,9.22
2018-04-29T05:41:46.955Z,9.21
2018-04-29T05:42:46.977Z,9.16
2018-04-29T05:43:46.950Z,9.19
2018-04-29T05:44:46.930Z,9.18
2018-04-29T05:45:46.925Z,9.13
2018-04-29T05:46:46.948Z,9.08
2018-04-29T05:47:46.909Z,9.11
2018-04-29T05:48:46.893Z,9.22
2018-04-29T05:49:46.902Z,9.14
2018-04-29T05:50:46.821Z,9.11
2018-04-29T05:51:46.817Z,9.06
2018-04-29T05:52:46.920Z,9.18
2018-04-29T05:53:46.804Z,9.06
2018-04-29T05:54:46.837Z,9.11
2018-04-29T05:55:46.787Z,9.08
2018-04-29T05:56:46.802Z,9.11
2018-04-29T05:57:46.772Z,9.03
2018-04-29T05:58:46.746Z,9.04
2018-04-29T05:59:46.754Z,9.06
2018-04-29T06:00:46.722Z,9.08
2018-04-29T06:01:46.736Z,9.04
2018-04-29T06:02:46.747Z,9.11
2018-04-29T06:03:46.713Z,9.08
2018-04-29T06:04:46.691Z,9.08
2018-04-29T06:05:46.685Z,9.08
2018-04-29T06:06:46.800Z,9.11
2018-04-29T06:07:46.687Z,9.10
2018-04-29T06:08:46.611Z,9.18
2018-04-29T06:09:46.627Z,9.08
2018-04-29T06:10:46.818Z,8.99
2018-04-29T06:11:46.622Z,8.79
2018-04-29T06:12:46.604Z,8.61
2018-04-29T06:13:46.620Z,8.56
2018-04-29T06:14:46.815Z,8.38
2018-04-29T06:15:46.624Z,8.31
2018-04-29T06:16:46.573Z,8.26
2018-04-29T06:17:46.558Z,8.26
2018-04-29T06:18:46.564Z,8.15
2018-04-29T06:19:46.549Z,8.24
2018-04-29T06:21:46.738Z,8.31
2018-04-29T06:22:46.686Z,8.27
2018-04-29T06:23:46.506Z,8.31
2018-04-29T06:24:46.478Z,8.37
2018-04-29T06:25:46.468Z,8.41
2018-04-29T06:26:46.903Z,8.46
2018-04-29T06:27:46.400Z,8.41
2018-04-29T06:28:46.456Z,8.48
2018-04-29T06:29:46.417Z,8.53
2018-04-29T06:30:46.365Z,8.58
2018-04-29T06:31:46.409Z,8.66
2018-04-29T06:32:46.445Z,8.71
2018-04-29T06:33:46.367Z,8.78
2018-04-29T06:34:46.375Z,8.94
2018-04-29T06:35:46.365Z,8.95
2018-04-29T06:36:46.354Z,9.11
2018-04-29T06:37:46.378Z,9.11
2018-04-29T06:38:46.384Z,9.25
2018-04-29T06:39:46.572Z,9.23
2018-04-29T06:40:46.265Z,9.34
2018-04-29T06:41:46.326Z,9.22
2018-04-29T06:42:46.247Z,9.19
2018-04-29T06:43:46.246Z,9.18
2018-04-29T06:45:46.200Z,9.22
2018-04-29T06:46:46.312Z,9.31
2018-04-29T06:47:46.243Z,9.29
2018-04-29T06:48:46.233Z,9.28
2018-04-29T06:49:46.257Z,9.32
2018-04-29T06:50:46.352Z,9.40
2018-04-29T06:51:46.161Z,9.50
2018-04-29T06:52:46.212Z,9.54
2018-04-29T06:53:46.413Z,9.58
2018-04-29T06:54:46.184Z,9.61
2018-04-29T06:55:46.179Z,9.62
2018-04-29T06:56:46.107Z,9.66
2018-04-29T06:57:46.140Z,9.62
2018-04-29T06:58:46.348Z,9.77
2018-04-29T06:59:46.144Z,9.87
2018-04-29T07:00:46.107Z,9.87
2018-04-29T07:01:46.092Z,9.99
2018-04-29T07:02:46.089Z,10.01
2018-04-29T07:03:46.129Z,10.01
2018-04-29T07:04:46.075Z,10.15
2018-04-29T07:05:46.246Z,10.05
2018-04-29T07:06:46.071Z,9.95
2018-04-29T07:07:46.019Z,9.91
2018-04-29T07:08:46.000Z,9.83
2018-04-29T07:09:46.045Z,9.80
2018-04-29T07:10:46.007Z,9.69
2018-04-29T07:11:46.003Z,9.66
2018-04-29T07:12:46.034Z,9.61
2018-04-29T07:13:46.046Z,9.74
2018-04-29T07:14:45.978Z,9.61
2018-04-29T07:15:45.985Z,9.61
2018-04-29T07:16:45.983Z,9.58
2018-04-29T07:17:45.982Z,9.56
2018-04-29T07:18:45.921Z,9.55
2018-04-29T07:19:45.923Z,9.59
2018-04-29T07:20:45.961Z,9.68
2018-04-29T07:21:45.942Z,9.66
2018-04-29T07:22:45.909Z,9.65
2018-04-29T07:23:45.880Z,9.64
2018-04-29T07:24:45.866Z,9.66
2018-04-29T07:25:45.850Z,9.62
2018-04-29T07:26:45.943Z,9.69
2018-04-29T07:27:45.849Z,9.59
2018-04-29T07:28:45.860Z,9.55
2018-04-29T07:29:45.802Z,9.55
2018-04-29T07:30:45.824Z,9.56
2018-04-29T07:31:45.789Z,9.56
2018-04-29T07:32:45.768Z,9.56
2018-04-29T07:33:45.793Z,9.62
2018-04-29T07:34:45.976Z,9.62
2018-04-29T07:35:45.806Z,9.65
2018-04-29T07:36:45.783Z,9.66
2018-04-29T07:39:45.900Z,9.55
2018-04-29T07:40:45.963Z,9.56
2018-04-29T07:41:45.667Z,9.48
2018-04-29T07:42:45.733Z,9.54
2018-04-29T07:43:45.755Z,9.56
2018-04-29T07:44:45.680Z,9.64
2018-04-29T07:47:45.690Z,9.79
2018-04-29T07:48:45.826Z,9.80
2018-04-29T07:49:45.680Z,9.82
2018-04-29T07:50:45.614Z,9.80
2018-04-29T07:51:45.609Z,9.80
2018-04-29T07:52:45.584Z,9.92
2018-04-29T07:53:45.574Z,9.97
2018-04-29T07:54:45.568Z,9.98
2018-04-29T07:55:45.554Z,9.95
2018-04-29T07:56:45.495Z,9.92
2018-04-29T07:57:45.529Z,9.89
2018-04-29T07:58:45.510Z,9.91
2018-04-29T07:59:45.547Z,9.92
2018-04-29T08:00:45.612Z,9.94
2018-04-29T08:01:45.454Z,9.94
2018-04-29T08:02:45.471Z,9.91
2018-04-29T08:03:45.484Z,9.94
2018-04-29T08:04:45.494Z,9.97
2018-04-29T08:05:45.478Z,9.94
2018-04-29T08:06:45.511Z,9.87
2018-04-29T08:07:45.429Z,9.82
2018-04-29T08:08:45.464Z,9.79
2018-04-29T08:09:45.405Z,9.80
2018-04-29T08:10:45.423Z,9.80
2018-04-29T08:11:45.360Z,9.95
2018-04-29T08:12:45.338Z,9.86
2018-04-29T08:13:45.357Z,9.95
2018-04-29T08:14:45.341Z,10.15
2018-04-29T08:15:45.394Z,10.12
2018-04-29T08:16:45.368Z,10.15
2018-04-29T08:17:45.374Z,10.22
2018-04-29T08:18:45.310Z,10.31
2018-04-29T08:19:45.279Z,10.56
2018-04-29T08:20:45.300Z,10.60
2018-04-29T08:21:45.279Z,10.71
2018-04-29T08:22:45.294Z,10.64
2018-04-29T08:23:45.234Z,10.69
2018-04-29T08:24:45.238Z,10.79
2018-04-29T08:25:45.226Z,10.82
2018-04-29T08:26:45.256Z,10.81
2018-04-29T08:27:45.244Z,10.93
2018-04-29T08:28:45.318Z,11.08
2018-04-29T08:29:45.224Z,11.08
2018-04-29T08:30:45.240Z,11.15
2018-04-29T08:31:45.233Z,11.27
2018-04-29T08:32:45.220Z,11.33
2018-04-29T08:33:45.226Z,11.40
2018-04-29T08:34:45.194Z,11.57
2018-04-29T08:35:45.188Z,11.62
2018-04-29T08:36:45.250Z,11.78
2018-04-29T08:37:45.232Z,11.83
2018-04-29T08:38:45.215Z,11.97
2018-04-29T08:39:45.138Z,12.12
2018-04-29T08:40:45.208Z,12.32
2018-04-29T08:41:45.201Z,12.62
2018-04-29T08:42:45.190Z,12.83
2018-04-29T08:43:45.424Z,13.23
2018-04-29T08:44:45.168Z,13.56
2018-04-29T08:45:45.356Z,13.63
2018-04-29T08:46:45.329Z,13.71
2018-04-29T08:47:45.313Z,13.77
2018-04-29T08:48:45.151Z,13.67
2018-04-29T08:49:45.176Z,13.63
2018-04-29T08:50:45.757Z,13.57
2018-04-29T08:51:45.111Z,13.57
2018-04-29T08:52:45.166Z,13.68
2018-04-29T08:53:45.144Z,13.81
2018-04-29T08:54:45.138Z,13.92
2018-04-29T08:55:45.147Z,13.78
2018-04-29T08:56:45.284Z,13.67
2018-04-29T08:57:45.261Z,13.83
2018-04-29T08:58:45.243Z,14.04
2018-04-29T08:59:45.129Z,14.26
2018-04-29T09:00:45.117Z,14.44
2018-04-29T09:01:45.330Z,14.77
2018-04-29T09:02:45.061Z,15.03
2018-04-29T09:03:45.173Z,15.19
2018-04-29T09:04:45.120Z,15.39
2018-04-29T09:05:45.074Z,15.42
2018-04-29T09:06:45.115Z,15.58
2018-04-29T09:07:45.124Z,15.58
2018-04-29T09:08:45.138Z,15.68
2018-04-29T09:10:45.117Z,15.75
2018-04-29T09:11:45.080Z,15.94
2018-04-29T09:12:45.110Z,15.94
2018-04-29T09:13:45.123Z,16.15
2018-04-29T09:14:45.113Z,16.31
2018-04-29T09:15:45.086Z,16.50
2018-04-29T09:16:45.371Z,16.58
2018-04-29T09:17:45.174Z,16.66
2018-04-29T09:18:45.190Z,16.60
2018-04-29T09:19:45.355Z,16.58
2018-04-29T09:20:45.374Z,16.71
2018-04-29T09:21:45.134Z,16.86
2018-04-29T09:22:45.365Z,16.81
2018-04-29T09:23:45.193Z,17.05
2018-04-29T09:24:45.205Z,17.22
2018-04-29T09:25:45.212Z,17.26
2018-04-29T09:26:45.201Z,17.42
2018-04-29T09:27:45.182Z,17.56
2018-04-29T09:28:45.208Z,17.57
2018-04-29T09:29:45.196Z,17.51
2018-04-29T09:30:45.213Z,17.24
2018-04-29T09:31:45.215Z,16.99
2018-04-29T09:32:45.263Z,16.64
2018-04-29T09:34:45.321Z,16.49
2018-04-29T09:35:45.231Z,16.35
2018-04-29T09:36:45.245Z,16.41
2018-04-29T09:37:46.928Z,16.69
2018-04-29T09:38:45.457Z,17.08
2018-04-29T09:39:45.216Z,17.51
2018-04-29T09:40:45.229Z,17.65
2018-04-29T09:41:45.232Z,17.51
2018-04-29T09:42:45.221Z,17.31
2018-04-29T09:43:45.443Z,16.94
2018-04-29T09:44:45.266Z,16.74
2018-04-29T09:45:45.252Z,16.66
2018-04-29T09:46:45.356Z,16.58
2018-04-29T09:47:45.520Z,16.36
2018-04-29T09:48:45.366Z,16.29
2018-04-29T09:49:45.250Z,16.17
2018-04-29T09:50:45.467Z,16.33
2018-04-29T09:51:45.296Z,16.29
2018-04-29T09:52:45.255Z,16.33
2018-04-29T09:53:45.267Z,16.33
2018-04-29T09:54:45.255Z,16.39
2018-04-29T09:55:45.517Z,16.33
2018-04-29T09:56:45.360Z,16.26
2018-04-29T09:57:45.343Z,16.08
2018-04-29T09:58:45.341Z,15.84
2018-04-29T09:59:45.282Z,15.95
2018-04-29T10:00:45.311Z,16.01
2018-04-29T10:01:45.325Z,15.97
2018-04-29T10:02:45.316Z,15.91
2018-04-29T10:03:45.294Z,15.91
2018-04-29T10:04:45.344Z,15.86
2018-04-29T10:05:45.310Z,16.13
2018-04-29T10:06:45.506Z,16.41
2018-04-29T10:07:45.257Z,16.61
2018-04-29T10:08:46.889Z,17.05
2018-04-29T10:09:45.287Z,17.16
2018-04-29T10:10:45.348Z,17.04
2018-04-29T10:11:45.343Z,16.89
2018-04-29T10:12:45.345Z,16.71
2018-04-29T10:13:45.319Z,16.50
2018-04-29T10:14:45.293Z,16.65
2018-04-29T10:15:45.296Z,16.75
2018-04-29T10:16:45.542Z,16.99
2018-04-29T10:17:45.311Z,17.23
2018-04-29T10:18:45.428Z,17.56
2018-04-29T10:19:45.376Z,18.03
2018-04-29T10:20:45.266Z,18.25
2018-04-29T10:21:45.314Z,18.60
2018-04-29T10:22:45.305Z,18.78
2018-04-29T10:23:45.290Z,18.92
2018-04-29T10:24:45.294Z,18.88
2018-04-29T10:25:45.364Z,18.62
2018-04-29T10:26:45.359Z,18.40
2018-04-29T10:27:45.320Z,18.28
2018-04-29T10:28:45.376Z,18.58
2018-04-29T10:29:45.305Z,18.90
2018-04-29T10:30:45.424Z,19.18
2018-04-29T10:31:45.381Z,19.41
2018-04-29T10:32:45.409Z,19.37
2018-04-29T10:33:45.374Z,19.41
2018-04-29T10:34:45.322Z,19.31
2018-04-29T10:35:45.351Z,19.18
2018-04-29T10:36:45.414Z,19.02
2018-04-29T10:37:45.393Z,18.80
2018-04-29T10:38:45.389Z,18.45
2018-04-29T10:39:45.416Z,18.26
2018-04-29T10:40:45.415Z,18.08
2018-04-29T10:41:45.399Z,17.95
2018-04-29T10:42:45.395Z,17.85
2018-04-29T10:43:45.437Z,17.70
2018-04-29T10:44:45.502Z,17.59
2018-04-29T10:45:45.430Z,17.30
2018-04-29T10:46:45.404Z,17.16
2018-04-29T10:47:45.413Z,17.11
2018-04-29T10:48:45.434Z,17.16
2018-04-29T10:49:45.382Z,17.14
2018-04-29T10:50:45.449Z,17.23
2018-04-29T10:51:45.689Z,17.31
2018-04-29T10:52:45.377Z,17.30
2018-04-29T10:53:45.406Z,17.34
2018-04-29T10:54:45.368Z,17.52
2018-04-29T10:55:45.469Z,17.39
2018-04-29T10:56:45.524Z,17.45
2018-04-29T10:57:45.458Z,17.45
2018-04-29T10:58:45.448Z,17.36
2018-04-29T10:59:45.460Z,17.45
2018-04-29T11:00:45.413Z,17.57
2018-04-29T11:01:45.412Z,17.74
2018-04-29T11:02:45.463Z,17.95
2018-04-29T11:03:45.462Z,18.05
2018-04-29T11:04:45.412Z,18.28
2018-04-29T11:05:45.390Z,18.05
2018-04-29T11:06:45.407Z,17.87
2018-04-29T11:07:45.406Z,17.60
2018-04-29T11:09:45.446Z,17.30
2018-04-29T11:10:45.432Z,17.12
2018-04-29T11:11:45.467Z,17.01
2018-04-29T11:12:45.416Z,16.90
2018-04-29T11:13:45.407Z,16.86
2018-04-29T11:14:45.687Z,16.84
2018-04-29T11:15:45.448Z,17.01
2018-04-29T11:16:45.396Z,17.11
2018-04-29T11:17:45.404Z,17.14
2018-04-29T11:18:45.580Z,17.30
2018-04-29T11:19:45.384Z,17.56
2018-04-29T11:20:45.356Z,17.67
2018-04-29T11:21:45.429Z,17.67
2018-04-29T11:22:45.385Z,17.60
2018-04-29T11:23:45.357Z,17.38
2018-04-29T11:24:45.368Z,17.29
2018-04-29T11:25:45.374Z,17.04
2018-04-29T11:26:45.384Z,16.93
2018-04-29T11:27:45.396Z,16.96
2018-04-29T11:28:45.373Z,16.96
2018-04-29T11:29:45.406Z,17.19
2018-04-29T11:30:45.332Z,17.54
2018-04-29T11:31:45.353Z,18.07
2018-04-29T11:32:45.374Z,18.38
2018-04-29T11:33:45.370Z,18.90
2018-04-29T11:34:45.379Z,19.33
2018-04-29T11:35:45.359Z,19.52
2018-04-29T11:36:45.409Z,19.73
2018-04-29T11:37:45.354Z,20.11
2018-04-29T11:38:45.346Z,20.26
2018-04-29T11:39:45.358Z,20.44
2018-04-29T11:40:45.340Z,20.31
2018-04-29T11:42:45.637Z,20.50
2018-04-29T11:43:45.435Z,20.60
2018-04-29T11:44:45.439Z,20.80
2018-04-29T11:45:45.433Z,20.93
2018-04-29T11:46:45.431Z,21.09
2018-04-29T11:47:45.626Z,21.20
2018-04-29T11:48:45.415Z,21.25
2018-04-29T11:49:45.420Z,21.43
2018-04-29T11:50:45.404Z,21.40
2018-04-29T11:51:45.436Z,21.18
2018-04-29T11:52:45.424Z,21.12
2018-04-29T11:53:45.433Z,21.22
2018-04-29T11:54:45.452Z,21.33
2018-04-29T11:55:45.462Z,21.24
2018-04-29T11:56:45.417Z,21.36
2018-04-29T11:57:45.514Z,21.18
2018-04-29T11:58:45.447Z,21.46
2018-04-29T11:59:45.497Z,21.36
2018-04-29T12:00:45.516Z,21.20
2018-04-29T12:01:45.504Z,21.07
2018-04-29T12:02:45.541Z,21.45
2018-04-29T12:03:45.540Z,21.83
2018-04-29T12:04:45.554Z,22.10
2018-04-29T12:05:45.518Z,22.36
2018-04-29T12:06:45.584Z,22.51
2018-04-29T12:07:45.545Z,22.80
2018-04-29T12:08:45.517Z,23.18
2018-04-29T12:09:45.789Z,23.17
2018-04-29T12:10:48.021Z,23.25
2018-04-29T12:11:45.615Z,23.66
2018-04-29T12:12:45.604Z,23.40
2018-04-29T12:13:45.586Z,23.34
2018-04-29T12:15:45.580Z,23.31
2018-04-29T12:16:45.687Z,23.17
2018-04-29T12:17:45.853Z,23.24
2018-04-29T12:19:45.721Z,23.59
2018-04-29T12:20:45.659Z,23.80
2018-04-29T12:21:45.652Z,23.91
2018-04-29T12:22:45.660Z,23.81
2018-04-29T12:23:45.741Z,23.87
2018-04-29T12:24:45.726Z,24.13
2018-04-29T12:25:45.744Z,24.29
2018-04-29T12:26:45.700Z,24.35
2018-04-29T12:27:45.718Z,24.33
2018-04-29T12:28:45.749Z,24.33
2018-04-29T12:29:45.740Z,24.51
2018-04-29T12:30:45.781Z,24.48
2018-04-29T12:31:45.764Z,24.30
2018-04-29T12:32:45.749Z,24.21
2018-04-29T12:33:45.812Z,24.10
2018-04-29T12:34:45.778Z,24.26
2018-04-29T12:35:45.817Z,24.47
2018-04-29T12:36:45.786Z,24.58
2018-04-29T12:37:45.808Z,24.88
2018-04-29T12:38:45.807Z,25.10
2018-04-29T12:39:45.816Z,25.10
2018-04-29T12:40:46.045Z,25.22
2018-04-29T12:41:45.906Z,25.35
2018-04-29T12:42:45.854Z,25.59
2018-04-29T12:43:45.854Z,25.85
2018-04-29T12:44:46.055Z,25.78
2018-04-29T12:45:45.892Z,25.63
2018-04-29T12:46:46.022Z,25.70
2018-04-29T12:47:45.942Z,25.47
2018-04-29T12:48:45.864Z,25.36
2018-04-29T12:49:45.944Z,25.36
2018-04-29T12:51:45.946Z,25.14
2018-04-29T12:52:45.997Z,25.38
2018-04-29T12:53:45.906Z,25.43
2018-04-29T12:54:45.925Z,25.53
2018-04-29T12:55:46.033Z,25.58
2018-04-29T12:56:45.987Z,25.84
2018-04-29T12:57:45.968Z,26.15
2018-04-29T12:58:46.022Z,26.33
2018-04-29T12:59:46.017Z,26.55
2018-04-29T13:00:45.991Z,26.15
2018-04-29T13:01:46.018Z,25.85
2018-04-29T13:02:45.999Z,25.41
2018-04-29T13:03:46.021Z,25.32
2018-04-29T13:04:46.071Z,24.88
2018-04-29T13:05:46.151Z,24.73
2018-04-29T13:06:46.117Z,24.86
2018-04-29T13:07:46.057Z,25.06
2018-04-29T13:08:46.304Z,25.47
2018-04-29T13:09:46.270Z,25.50
2018-04-29T13:10:46.089Z,25.44
2018-04-29T13:11:46.085Z,25.62
2018-04-29T13:12:46.080Z,26.06
2018-04-29T13:14:46.083Z,26.37
2018-04-29T13:15:46.105Z,26.15
2018-04-29T13:16:46.100Z,26.00
2018-04-29T13:17:46.161Z,26.10
2018-04-29T13:18:46.124Z,26.15
2018-04-29T13:19:46.130Z,25.87
2018-04-29T13:20:46.156Z,25.50
2018-04-29T13:21:46.136Z,24.95
2018-04-29T13:22:46.113Z,24.84
2018-04-29T13:23:46.136Z,24.81
2018-04-29T13:24:46.136Z,24.58
2018-04-29T13:25:46.173Z,24.38
2018-04-29T13:26:46.343Z,24.17